Aviation Digital Data Service (ADDS)

Output produced by TAFs form (0503 UTC 27 July 2017)
found at http://www.aviationweather.gov/adds/tafs/
 
KRNH 262334Z 2700/2724 32005KT P6SM SCT250 
     TEMPO 2708/2712 3SM BR MIFG 
     FM271400 02006KT P6SM SCT050